createdAt,value
2023-05-14T00:02:06.053Z,6.20
2023-05-14T00:04:32.982Z,6.30
2023-05-14T00:06:59.842Z,6.53
2023-05-14T00:09:27.005Z,6.30
2023-05-14T00:11:53.774Z,6.40
2023-05-14T00:14:20.511Z,6.27
2023-05-14T00:16:47.235Z,7.53
2023-05-14T00:19:14.555Z,6.63
2023-05-14T00:21:41.509Z,7.03
2023-05-14T00:24:08.334Z,6.93
2023-05-14T00:26:35.086Z,6.43
2023-05-14T00:29:02.471Z,6.47
2023-05-14T00:31:29.212Z,6.57
2023-05-14T00:33:56.095Z,6.73
2023-05-14T00:36:22.817Z,6.93
2023-05-14T00:38:49.951Z,6.83
2023-05-14T00:41:16.655Z,7.03
2023-05-14T00:43:43.389Z,6.27
2023-05-14T00:46:10.171Z,6.33
2023-05-14T00:48:36.889Z,6.93
2023-05-14T00:51:03.834Z,6.10
2023-05-14T00:53:30.841Z,7.30
2023-05-14T00:55:58.612Z,6.33
2023-05-14T00:58:25.941Z,6.80
2023-05-14T01:00:52.759Z,6.00
2023-05-14T01:03:19.611Z,6.03
2023-05-14T01:06:26.251Z,6.03
2023-05-14T01:09:01.951Z,6.40
2023-05-14T01:11:46.214Z,5.80
2023-05-14T01:14:47.624Z,6.83
2023-05-14T01:17:16.455Z,6.47
2023-05-14T01:19:45.063Z,6.60
2023-05-14T01:22:12.142Z,6.20
2023-05-14T01:24:39.734Z,6.47
2023-05-14T01:27:27.956Z,6.00
2023-05-14T01:30:15.377Z,6.20
2023-05-14T01:32:45.336Z,6.73
2023-05-14T01:35:13.177Z,6.13
2023-05-14T01:37:42.021Z,6.60
2023-05-14T01:40:11.620Z,6.40
2023-05-14T01:42:38.719Z,5.93
2023-05-14T01:45:06.215Z,6.37
2023-05-14T01:47:32.966Z,5.70
2023-05-14T01:49:59.710Z,6.40
2023-05-14T01:52:26.429Z,6.67
2023-05-14T01:54:53.180Z,6.00
2023-05-14T01:57:19.915Z,6.27
2023-05-14T01:59:46.634Z,6.30
2023-05-14T02:02:13.371Z,6.20
2023-05-14T02:04:40.178Z,5.57
2023-05-14T02:07:06.951Z,5.30
2023-05-14T02:09:33.851Z,5.80
2023-05-14T02:12:01.008Z,5.83
2023-05-14T02:14:27.976Z,6.00
2023-05-14T02:16:54.712Z,5.83
2023-05-14T02:19:21.434Z,5.40
2023-05-14T02:21:48.542Z,5.50
2023-05-14T02:24:15.395Z,5.63
2023-05-14T02:26:42.583Z,6.17
2023-05-14T02:29:09.376Z,6.43
2023-05-14T02:31:36.321Z,6.10
2023-05-14T02:34:04.148Z,5.90
2023-05-14T02:36:30.984Z,6.70
2023-05-14T02:39:00.036Z,5.73
2023-05-14T02:41:27.595Z,6.00
2023-05-14T02:43:54.962Z,5.00
2023-05-14T02:46:22.044Z,5.40
2023-05-14T02:48:48.973Z,5.93
2023-05-14T02:51:16.684Z,5.83
2023-05-14T02:53:43.444Z,5.57
2023-05-14T02:56:10.325Z,4.90
2023-05-14T02:58:37.082Z,4.80
2023-05-14T03:01:03.993Z,5.73
2023-05-14T03:03:31.607Z,5.20
2023-05-14T03:05:58.852Z,5.43
2023-05-14T03:08:25.956Z,5.97
2023-05-14T03:10:52.739Z,5.20
2023-05-14T03:13:20.912Z,5.13
2023-05-14T03:15:47.757Z,5.63
2023-05-14T03:18:15.330Z,5.40
2023-05-14T03:20:42.403Z,5.87
2023-05-14T03:23:09.145Z,5.27
2023-05-14T03:25:35.858Z,5.53
2023-05-14T03:28:03.744Z,5.40
2023-05-14T03:30:30.725Z,5.90
2023-05-14T03:32:57.826Z,5.30
2023-05-14T03:35:24.698Z,5.93
2023-05-14T03:37:53.151Z,5.67
2023-05-14T03:40:19.984Z,6.03
2023-05-14T03:42:46.777Z,5.80
2023-05-14T03:45:13.461Z,5.70
2023-05-14T03:47:40.264Z,5.97
2023-05-14T03:50:08.198Z,5.77
2023-05-14T03:52:34.942Z,6.03
2023-05-14T03:55:01.759Z,4.40
2023-05-14T03:57:29.236Z,5.30
2023-05-14T03:59:55.984Z,5.47
2023-05-14T04:02:22.740Z,5.77
2023-05-14T04:04:49.604Z,5.40
2023-05-14T04:07:16.385Z,5.03
2023-05-14T04:09:43.105Z,5.67
2023-05-14T04:12:10.013Z,4.67
2023-05-14T04:14:36.723Z,4.63
2023-05-14T04:17:03.934Z,5.07
2023-05-14T04:19:30.652Z,4.60
2023-05-14T04:21:57.404Z,5.37
2023-05-14T04:24:24.184Z,4.77
2023-05-14T04:26:50.866Z,4.87
2023-05-14T04:29:17.803Z,4.97
2023-05-14T04:31:44.833Z,4.57
2023-05-14T04:34:11.632Z,5.10
2023-05-14T04:36:38.426Z,4.93
2023-05-14T04:39:06.215Z,5.20
2023-05-14T04:41:33.093Z,4.50
2023-05-14T04:44:02.059Z,5.17
2023-05-14T04:46:28.995Z,5.03
2023-05-14T04:48:56.752Z,5.67
2023-05-14T04:51:24.144Z,4.67
2023-05-14T04:53:50.820Z,4.23
2023-05-14T04:56:17.662Z,4.30
2023-05-14T04:58:44.395Z,4.53
2023-05-14T05:01:11.558Z,5.17
2023-05-14T05:03:38.421Z,4.70
2023-05-14T05:06:05.306Z,4.70
2023-05-14T05:08:32.049Z,5.43
2023-05-14T05:10:58.725Z,4.73
2023-05-14T05:13:25.458Z,4.33
2023-05-14T05:15:52.204Z,4.63
2023-05-14T05:18:18.902Z,4.40
2023-05-14T05:20:45.605Z,4.03
2023-05-14T05:23:12.319Z,4.87
2023-05-14T05:25:39.079Z,4.83
2023-05-14T05:28:05.815Z,4.57
2023-05-14T05:30:32.547Z,4.57
2023-05-14T05:32:59.350Z,3.97
2023-05-14T05:35:26.138Z,4.10
2023-05-14T05:37:52.942Z,4.33
2023-05-14T05:40:19.728Z,4.13
2023-05-14T05:42:46.430Z,4.10
2023-05-14T05:45:13.193Z,4.27
2023-05-14T05:47:40.152Z,4.63
2023-05-14T05:50:07.771Z,4.00
2023-05-14T05:52:34.542Z,4.40
2023-05-14T05:55:01.284Z,4.20
2023-05-14T05:57:28.337Z,4.43
2023-05-14T05:59:55.077Z,4.00
2023-05-14T06:02:22.063Z,4.03
2023-05-14T06:04:48.990Z,3.87
2023-05-14T06:07:15.838Z,4.23
2023-05-14T06:09:42.636Z,3.93
2023-05-14T06:12:09.529Z,4.00
2023-05-14T06:14:36.851Z,3.80
2023-05-14T06:17:03.698Z,4.20
2023-05-14T06:19:30.718Z,4.20
2023-05-14T06:21:57.540Z,4.17
2023-05-14T06:24:24.262Z,3.90
2023-05-14T06:26:51.047Z,4.20
2023-05-14T06:29:17.788Z,4.63
2023-05-14T06:31:44.543Z,4.47
2023-05-14T06:34:11.563Z,4.67
2023-05-14T06:36:38.279Z,4.73
2023-05-14T06:39:05.111Z,4.83
2023-05-14T06:41:32.035Z,4.40
2023-05-14T06:43:58.760Z,4.87
2023-05-14T06:46:25.524Z,4.43
2023-05-14T06:48:52.294Z,4.83
2023-05-14T06:51:19.041Z,4.53
2023-05-14T06:53:46.997Z,4.70
2023-05-14T06:56:14.903Z,4.33
2023-05-14T06:58:41.643Z,4.63
2023-05-14T07:01:08.540Z,4.47
2023-05-14T07:03:35.269Z,4.10
2023-05-14T07:06:01.967Z,4.83
2023-05-14T07:08:28.850Z,4.60
2023-05-14T07:10:56.385Z,4.17
2023-05-14T07:13:25.270Z,4.70
2023-05-14T07:15:55.758Z,4.20
2023-05-14T07:18:24.341Z,4.40
2023-05-14T07:20:51.100Z,3.77
2023-05-14T07:23:19.745Z,4.23
2023-05-14T07:25:46.820Z,4.27
2023-05-14T07:28:13.635Z,4.20
2023-05-14T07:30:40.444Z,4.37
2023-05-14T07:33:07.351Z,4.07
2023-05-14T07:35:34.284Z,3.90
2023-05-14T07:38:01.100Z,4.00
2023-05-14T07:40:30.476Z,4.00
2023-05-14T07:42:57.251Z,3.63
2023-05-14T07:45:24.070Z,3.20
2023-05-14T07:47:52.378Z,3.17
2023-05-14T07:50:19.759Z,2.83
2023-05-14T07:52:46.531Z,3.10
2023-05-14T07:55:13.887Z,2.83
2023-05-14T07:57:40.916Z,3.27
2023-05-14T08:00:08.496Z,3.10
2023-05-14T08:02:35.291Z,3.70
2023-05-14T08:05:02.141Z,3.13
2023-05-14T08:07:30.266Z,3.50
2023-05-14T08:09:57.101Z,3.20
2023-05-14T08:12:23.892Z,3.27
2023-05-14T08:14:50.629Z,2.93
2023-05-14T08:17:17.557Z,2.93
2023-05-14T08:19:44.592Z,3.10
2023-05-14T08:22:11.394Z,3.13
2023-05-14T08:24:38.076Z,3.50
2023-05-14T08:27:05.120Z,2.70
2023-05-14T08:29:31.896Z,2.90
2023-05-14T08:32:00.337Z,2.93
2023-05-14T08:34:30.536Z,2.90
2023-05-14T08:36:57.236Z,3.33
2023-05-14T08:39:23.937Z,2.80
2023-05-14T08:41:51.846Z,2.90
2023-05-14T08:44:20.261Z,2.60
2023-05-14T08:46:49.962Z,2.73
2023-05-14T08:49:43.254Z,2.93
2023-05-14T08:52:10.908Z,3.13
2023-05-14T08:54:38.241Z,2.90
2023-05-14T08:57:05.680Z,2.57
2023-05-14T08:59:32.561Z,2.30
2023-05-14T09:02:02.830Z,3.07
2023-05-14T09:04:31.316Z,2.83
2023-05-14T09:07:01.702Z,2.70
2023-05-14T09:09:29.031Z,2.90
2023-05-14T09:11:55.853Z,3.13
2023-05-14T09:14:22.846Z,2.50
2023-05-14T09:16:51.816Z,2.73
2023-05-14T09:19:19.717Z,3.47
2023-05-14T09:21:48.025Z,2.90
2023-05-14T09:24:26.621Z,2.60
2023-05-14T09:26:54.917Z,2.63
2023-05-14T09:29:21.951Z,2.70
2023-05-14T09:31:51.397Z,3.10
2023-05-14T09:34:32.402Z,3.07
2023-05-14T09:36:59.689Z,2.70
2023-05-14T09:39:27.178Z,2.80
2023-05-14T09:41:54.983Z,2.43
2023-05-14T09:44:24.076Z,2.60
2023-05-14T09:46:51.493Z,2.80
2023-05-14T09:49:18.790Z,3.10
2023-05-14T09:51:45.610Z,2.63
2023-05-14T09:54:12.403Z,3.10
2023-05-14T09:56:39.925Z,2.60
2023-05-14T09:59:06.824Z,2.67
2023-05-14T10:01:34.521Z,2.90
2023-05-14T10:04:04.403Z,2.50
2023-05-14T10:06:36.522Z,2.30
2023-05-14T10:09:05.004Z,2.60
2023-05-14T10:11:37.505Z,3.27
2023-05-14T10:14:12.636Z,2.63
2023-05-14T10:16:44.289Z,2.80
2023-05-14T10:19:12.944Z,2.60
2023-05-14T10:21:42.586Z,2.70
2023-05-14T10:24:10.205Z,2.40
2023-05-14T10:26:39.638Z,3.30
2023-05-14T10:29:07.284Z,2.27
2023-05-14T10:31:47.831Z,2.00
2023-05-14T10:34:44.453Z,2.47
2023-05-14T10:37:22.285Z,2.43
2023-05-14T10:39:59.788Z,1.90
2023-05-14T10:42:36.102Z,2.70
2023-05-14T10:45:08.514Z,2.27
2023-05-14T10:47:40.257Z,2.67
2023-05-14T10:50:09.187Z,2.23
2023-05-14T10:52:36.588Z,2.07
2023-05-14T10:55:08.439Z,2.20
2023-05-14T10:57:38.236Z,1.90
2023-05-14T11:00:10.904Z,2.10
2023-05-14T11:02:39.872Z,1.80
2023-05-14T11:05:09.423Z,2.40
2023-05-14T11:07:41.884Z,2.10
2023-05-14T11:10:12.842Z,1.90
2023-05-14T11:12:45.074Z,1.70
2023-05-14T11:15:14.494Z,2.40
2023-05-14T11:17:43.469Z,2.17
2023-05-14T11:20:11.617Z,1.73
2023-05-14T11:22:40.213Z,1.87
2023-05-14T11:25:09.324Z,2.10
2023-05-14T11:27:38.789Z,2.10
2023-05-14T11:30:12.403Z,1.90
2023-05-14T11:32:39.593Z,2.00
2023-05-14T11:35:06.838Z,1.90
2023-05-14T11:37:33.562Z,1.70
2023-05-14T11:40:01.826Z,1.87
2023-05-14T11:42:28.678Z,1.60
2023-05-14T11:44:55.409Z,1.63
2023-05-14T11:47:23.004Z,1.57
2023-05-14T11:49:49.911Z,1.90
2023-05-14T11:52:19.738Z,1.73
2023-05-14T11:54:46.813Z,1.60
2023-05-14T11:57:16.500Z,1.90
2023-05-14T11:59:43.698Z,1.57
2023-05-14T12:02:15.236Z,1.80
2023-05-14T12:05:00.749Z,2.20
2023-05-14T12:07:47.016Z,2.07
2023-05-14T12:10:14.089Z,1.90
2023-05-14T12:12:40.858Z,1.60
2023-05-14T12:15:12.578Z,1.77
2023-05-14T12:17:40.150Z,1.67
2023-05-14T12:20:11.349Z,1.90
2023-05-14T12:22:38.882Z,1.70
2023-05-14T12:25:12.508Z,1.77
2023-05-14T12:27:39.368Z,1.57
2023-05-14T12:30:20.543Z,2.20
2023-05-14T12:32:51.982Z,1.87
2023-05-14T12:35:19.284Z,1.70
2023-05-14T12:37:46.345Z,1.67
2023-05-14T12:40:13.301Z,2.17
2023-05-14T12:42:40.240Z,1.90
2023-05-14T12:45:08.855Z,1.93
2023-05-14T12:47:37.325Z,1.57
2023-05-14T12:50:04.904Z,1.70
2023-05-14T12:55:01.684Z,1.83
2023-05-14T12:57:30.020Z,1.80
2023-05-14T12:59:57.579Z,2.07
2023-05-14T13:02:24.297Z,1.87
2023-05-14T13:04:51.272Z,1.50
2023-05-14T13:07:17.976Z,1.90
2023-05-14T13:09:44.724Z,1.67
2023-05-14T13:12:11.489Z,2.63
2023-05-14T13:14:38.213Z,2.03
2023-05-14T13:17:05.682Z,2.00
2023-05-14T13:19:32.658Z,2.10
2023-05-14T13:21:59.736Z,2.03
2023-05-14T13:24:26.512Z,2.13
2023-05-14T13:26:53.240Z,1.80
2023-05-14T13:29:20.075Z,2.10
2023-05-14T13:31:46.873Z,2.40
2023-05-14T13:34:13.738Z,2.23
2023-05-14T13:36:43.964Z,1.87
2023-05-14T13:39:14.175Z,1.70
2023-05-14T13:42:00.147Z,1.73
2023-05-14T13:44:27.255Z,1.60
2023-05-14T13:46:54.503Z,1.80
2023-05-14T13:49:21.482Z,1.97
2023-05-14T13:51:48.249Z,1.90
2023-05-14T13:54:15.067Z,1.70
2023-05-14T13:56:42.057Z,1.77
2023-05-14T13:59:09.035Z,1.60
2023-05-14T14:01:35.782Z,1.70
2023-05-14T14:04:03.468Z,1.40
2023-05-14T14:06:32.966Z,1.80
2023-05-14T14:08:59.687Z,1.67
2023-05-14T14:11:27.003Z,1.70
2023-05-14T14:13:54.091Z,1.77
2023-05-14T14:16:21.034Z,1.70
2023-05-14T14:18:47.854Z,1.93
2023-05-14T14:21:18.570Z,1.70
2023-05-14T14:23:48.678Z,2.00
2023-05-14T14:26:16.078Z,2.00
2023-05-14T14:28:43.144Z,1.47
2023-05-14T14:31:11.719Z,1.97
2023-05-14T14:33:38.584Z,1.57
2023-05-14T14:36:06.227Z,1.60
2023-05-14T14:38:32.979Z,1.80
2023-05-14T14:40:59.765Z,1.70
2023-05-14T14:43:26.536Z,1.80
2023-05-14T14:45:53.325Z,1.63
2023-05-14T14:48:27.968Z,1.50
2023-05-14T14:50:55.912Z,1.60
2023-05-14T14:53:24.388Z,2.00
2023-05-14T14:55:52.364Z,1.57
2023-05-14T14:58:20.809Z,1.73
2023-05-14T15:00:48.473Z,2.30
2023-05-14T15:03:16.051Z,3.30
2023-05-14T15:05:43.085Z,2.97
2023-05-14T15:08:10.218Z,2.70
2023-05-14T15:10:41.425Z,2.17
2023-05-14T15:13:08.906Z,2.33
2023-05-14T15:15:36.380Z,2.40
2023-05-14T15:18:04.613Z,2.10
2023-05-14T15:20:31.431Z,2.23
2023-05-14T15:22:58.276Z,1.87
2023-05-14T15:25:26.380Z,2.10
2023-05-14T15:27:53.368Z,1.80
2023-05-14T15:30:20.769Z,1.83
2023-05-14T15:32:47.631Z,1.77
2023-05-14T15:35:14.613Z,1.47
2023-05-14T15:37:45.816Z,1.67
2023-05-14T15:40:31.198Z,1.60
2023-05-14T15:42:58.099Z,2.07
2023-05-14T15:45:24.968Z,1.67
2023-05-14T15:47:51.742Z,1.57
2023-05-14T15:50:18.909Z,1.80
2023-05-14T15:52:45.950Z,1.83
2023-05-14T15:55:12.892Z,1.60
2023-05-14T15:57:39.743Z,1.90
2023-05-14T16:00:11.293Z,1.70
2023-05-14T16:02:39.373Z,1.80
2023-05-14T16:05:07.481Z,1.57
2023-05-14T16:07:34.509Z,1.97
2023-05-14T16:10:01.259Z,1.60
2023-05-14T16:12:28.118Z,1.70
2023-05-14T16:14:55.094Z,1.50
2023-05-14T16:17:24.938Z,2.33
2023-05-14T16:19:53.402Z,1.80
2023-05-14T16:22:21.554Z,1.83
2023-05-14T16:24:48.338Z,2.10
2023-05-14T16:27:15.135Z,1.90
2023-05-14T16:29:42.161Z,1.47
2023-05-14T16:32:09.348Z,1.60
2023-05-14T16:34:36.500Z,1.67
2023-05-14T16:37:03.914Z,1.53
2023-05-14T16:39:30.650Z,1.73
2023-05-14T16:41:57.478Z,1.40
2023-05-14T16:44:24.234Z,1.43
2023-05-14T16:46:52.489Z,1.70
2023-05-14T16:49:22.590Z,1.80
2023-05-14T16:51:49.364Z,1.40
2023-05-14T16:54:16.423Z,1.57
2023-05-14T16:56:48.336Z,1.40
2023-05-14T16:59:16.297Z,1.50
2023-05-14T17:01:44.402Z,1.70
2023-05-14T17:04:11.475Z,1.93
2023-05-14T17:06:38.281Z,2.03
2023-05-14T17:09:05.406Z,2.07
2023-05-14T17:11:32.150Z,1.87
2023-05-14T17:13:58.987Z,1.90
2023-05-14T17:16:26.269Z,2.70
2023-05-14T17:18:53.088Z,1.80
2023-05-14T17:21:19.864Z,2.10
2023-05-14T17:23:46.718Z,2.20
2023-05-14T17:26:13.510Z,2.37
2023-05-14T17:28:40.316Z,2.03
2023-05-14T17:31:09.895Z,2.47
2023-05-14T17:33:36.774Z,2.50
2023-05-14T17:36:03.829Z,2.43
2023-05-14T17:38:30.623Z,2.50
2023-05-14T17:40:57.596Z,2.53
2023-05-14T17:43:25.384Z,2.47
2023-05-14T17:45:54.300Z,2.20
2023-05-14T17:48:23.263Z,2.50
2023-05-14T17:50:51.803Z,2.30
2023-05-14T17:53:18.649Z,2.37
2023-05-14T17:55:45.714Z,2.20
2023-05-14T17:58:15.550Z,2.50
2023-05-14T18:00:42.672Z,2.27
2023-05-14T18:03:10.507Z,2.30
2023-05-14T18:05:37.393Z,2.40
2023-05-14T18:08:04.360Z,2.50
2023-05-14T18:10:31.181Z,2.83
2023-05-14T18:12:57.933Z,2.33
2023-05-14T18:15:26.012Z,2.30
2023-05-14T18:17:53.260Z,2.60
2023-05-14T18:20:20.415Z,2.50
2023-05-14T18:22:47.132Z,2.50
2023-05-14T18:25:13.943Z,2.70
2023-05-14T18:27:45.119Z,2.60
2023-05-14T18:30:13.970Z,2.60
2023-05-14T18:32:42.280Z,2.37
2023-05-14T18:35:09.609Z,2.60
2023-05-14T18:37:36.771Z,2.87
2023-05-14T18:40:04.854Z,2.90
2023-05-14T18:42:31.878Z,2.60
2023-05-14T18:44:58.648Z,2.70
2023-05-14T18:47:26.489Z,3.30
2023-05-14T18:49:55.987Z,3.17
2023-05-14T18:52:23.185Z,3.30
2023-05-14T18:54:50.965Z,3.03
2023-05-14T18:57:17.700Z,2.77
2023-05-14T18:59:44.432Z,3.07
2023-05-14T19:02:11.246Z,2.93
2023-05-14T19:04:50.751Z,3.07
2023-05-14T19:07:18.469Z,3.20
2023-05-14T19:09:45.196Z,2.93
2023-05-14T19:12:12.022Z,3.10
2023-05-14T19:14:38.732Z,3.63
2023-05-14T19:17:05.971Z,3.20
2023-05-14T19:19:33.027Z,3.53
2023-05-14T19:21:59.729Z,3.43
2023-05-14T19:24:26.525Z,3.67
2023-05-14T19:26:53.353Z,3.30
2023-05-14T19:29:20.071Z,3.87
2023-05-14T19:31:47.368Z,3.30
2023-05-14T19:34:14.393Z,4.97
2023-05-14T19:36:42.002Z,4.10
2023-05-14T19:39:08.862Z,4.43
2023-05-14T19:41:35.629Z,4.03
2023-05-14T19:44:02.462Z,4.20
2023-05-14T19:46:29.244Z,4.63
2023-05-14T19:48:55.983Z,3.83
2023-05-14T19:51:22.640Z,4.60
2023-05-14T19:53:49.630Z,4.87
2023-05-14T19:56:16.359Z,4.73
2023-05-14T19:58:44.422Z,4.40
2023-05-14T20:01:12.295Z,4.27
2023-05-14T20:03:39.486Z,4.43
2023-05-14T20:06:07.406Z,4.70
2023-05-14T20:08:34.170Z,4.73
2023-05-14T20:11:01.116Z,5.47
2023-05-14T20:13:33.402Z,5.33
2023-05-14T20:16:00.681Z,5.83
2023-05-14T20:18:27.627Z,5.20
2023-05-14T20:20:54.894Z,4.83
2023-05-14T20:23:21.658Z,4.73
2023-05-14T20:25:48.466Z,5.60
2023-05-14T20:28:15.399Z,5.30
2023-05-14T20:30:42.744Z,5.50
2023-05-14T20:33:10.058Z,5.70
2023-05-14T20:35:36.934Z,5.63
2023-05-14T20:38:03.928Z,5.50
2023-05-14T20:40:32.886Z,5.63
2023-05-14T20:42:59.760Z,5.00
2023-05-14T20:45:26.716Z,5.23
2023-05-14T20:47:53.902Z,5.33
2023-05-14T20:50:21.748Z,6.33
2023-05-14T20:52:48.618Z,5.43
2023-05-14T20:55:15.444Z,4.73
2023-05-14T20:57:43.613Z,4.93
2023-05-14T21:00:11.299Z,4.40
2023-05-14T21:02:38.154Z,4.17
2023-05-14T21:05:05.682Z,4.53
2023-05-14T21:07:32.528Z,4.00
2023-05-14T21:09:59.582Z,4.17
2023-05-14T21:12:26.362Z,4.33
2023-05-14T21:14:53.173Z,5.03
2023-05-14T21:17:19.948Z,3.80
2023-05-14T21:19:46.662Z,3.80
2023-05-14T21:22:13.702Z,4.77
2023-05-14T21:24:40.440Z,4.10
2023-05-14T21:27:07.161Z,3.40
2023-05-14T21:29:33.968Z,3.60
2023-05-14T21:32:00.847Z,3.73
2023-05-14T21:34:28.673Z,4.00
2023-05-14T21:36:56.465Z,3.60
2023-05-14T21:39:23.215Z,4.20
2023-05-14T21:41:50.007Z,3.53
2023-05-14T21:44:16.804Z,3.70
2023-05-14T21:46:43.768Z,3.50
2023-05-14T21:49:10.472Z,3.90
2023-05-14T21:51:37.270Z,3.60
2023-05-14T21:54:04.180Z,3.57
2023-05-14T21:56:31.110Z,3.50
2023-05-14T21:58:57.959Z,3.17
2023-05-14T22:01:24.763Z,3.30
2023-05-14T22:03:51.636Z,3.50
2023-05-14T22:06:18.466Z,3.73
2023-05-14T22:08:45.166Z,3.73
2023-05-14T22:11:11.922Z,4.13
2023-05-14T22:13:41.156Z,3.77
2023-05-14T22:16:13.813Z,3.40
2023-05-14T22:18:42.102Z,3.60
2023-05-14T22:21:09.212Z,3.90
2023-05-14T22:23:36.332Z,3.57
2023-05-14T22:26:03.292Z,3.43
2023-05-14T22:28:30.112Z,3.27
2023-05-14T22:30:59.866Z,3.33
2023-05-14T22:33:26.741Z,2.90
2023-05-14T22:35:53.501Z,2.60
2023-05-14T22:38:20.568Z,3.20
2023-05-14T22:40:47.363Z,2.87
2023-05-14T22:43:14.570Z,2.70
2023-05-14T22:45:41.359Z,2.97
2023-05-14T22:48:08.231Z,2.67
2023-05-14T22:50:34.949Z,2.50
2023-05-14T22:53:01.655Z,2.40
2023-05-14T22:55:28.565Z,2.60
2023-05-14T22:57:56.305Z,2.27
2023-05-14T23:00:23.150Z,2.53
2023-05-14T23:02:49.956Z,2.40
2023-05-14T23:05:16.835Z,2.43
2023-05-14T23:07:43.883Z,2.63
2023-05-14T23:10:11.580Z,2.63
2023-05-14T23:12:38.366Z,2.20
2023-05-14T23:15:05.628Z,2.90
2023-05-14T23:17:32.595Z,2.70
2023-05-14T23:19:59.312Z,2.23
2023-05-14T23:22:26.021Z,2.07
2023-05-14T23:24:52.717Z,2.20
2023-05-14T23:27:19.463Z,2.30
2023-05-14T23:29:46.153Z,2.30
2023-05-14T23:32:13.163Z,2.27
2023-05-14T23:34:39.946Z,2.40
2023-05-14T23:37:06.740Z,2.30
2023-05-14T23:39:33.622Z,2.60
2023-05-14T23:42:00.317Z,2.60
2023-05-14T23:44:27.175Z,2.47
2023-05-14T23:46:54.034Z,2.60
2023-05-14T23:49:20.924Z,2.63
2023-05-14T23:51:47.653Z,2.70
2023-05-14T23:54:14.523Z,2.47
2023-05-14T23:56:41.272Z,2.50
2023-05-14T23:59:08.088Z,2.33
